Portada
METAR-TAF:

METAR-TAF

Aeropuertos :

Gibraltar, Gibraltar

Aeropuerto de Gibraltar

latitud: 36-09N, longitud: 005-21W, altitud: 5 m

Observación

El informe se hizo hace 1 hora y 24 minutos, a las 22:50 UTC
Viento 13 kt del oeste-suroeste
Temperatura 23°C
Humedad 57%
Presión 1018 hPa
Visibilidad 10 km o más

METAR: LXGB 252250Z AUTO 25013KT 9999 // NCD 23/14 Q1018

Hora: 02:14 (00:14 UTC)

Pronóstico

El informe se hizo hace 7 horas y 35 minutos, a las 16:39 UTC
Pronóstico válido del 25 a las 18 UTC al 25 a las 22 UTC
Viento 15 kt del sur-suroeste
Visibilidad 10 km o más
sin nubes por debajo de 1500 m y sin presencia de cumulonimbus.
Evolucionando progresivamente
del 25 a las 18 UTC al 25 a las 20 UTC
Viento 5 kt del oeste

TAF: LXGB 251639Z 2518/2522 20015KT CAVOK 520001 BECMG 2518/2520 27005KT 5/////

Observaciones y pronósticos meteorológicos de más de 4000 aeropuertos (mensajes METAR y TAF).

Los puntos amarillos y rojos representan las estaciones disponibles.

Ponga el ratón en el punto deseado para ver el nombre de la estación.

Haga clic para ver las observaciones y los pronósticos meteorológicos.

Para cambiar el mapa : haga clic en los botones verdes con una cruz de color negro para hacer un zoom, en el botón verde con un guión para alejar o en las flechas verdes para mapas adyacentes.


METAR-TAF: